sensor_id;sensor_type;location;lat;lon;timestamp;temperature;humidity
5154;DHT22;2595;53.584;10.084;2022-11-15T00:00:05;7.30;99.90
5154;DHT22;2595;53.584;10.084;2022-11-15T00:02:31;7.30;99.90
5154;DHT22;2595;53.584;10.084;2022-11-15T00:04:56;7.30;99.90
5154;DHT22;2595;53.584;10.084;2022-11-15T00:07:22;7.30;99.90
5154;DHT22;2595;53.584;10.084;2022-11-15T00:09:47;7.30;99.90
5154;DHT22;2595;53.584;10.084;2022-11-15T00:12:13;7.30;99.90
5154;DHT22;2595;53.584;10.084;2022-11-15T00:14:38;7.30;99.90
5154;DHT22;2595;53.584;10.084;2022-11-15T00:17:04;7.30;99.90
5154;DHT22;2595;53.584;10.084;2022-11-15T00:19:30;7.30;99.90
5154;DHT22;2595;53.584;10.084;2022-11-15T00:21:55;7.30;99.90
5154;DHT22;2595;53.584;10.084;2022-11-15T00:24:21;7.20;99.90
5154;DHT22;2595;53.584;10.084;2022-11-15T00:26:46;7.20;99.90
5154;DHT22;2595;53.584;10.084;2022-11-15T00:29:12;7.20;99.90
5154;DHT22;2595;53.584;10.084;2022-11-15T00:31:37;7.20;99.90
5154;DHT22;2595;53.584;10.084;2022-11-15T00:34:03;7.20;99.90
5154;DHT22;2595;53.584;10.084;2022-11-15T00:36:29;7.20;99.90
5154;DHT22;2595;53.584;10.084;2022-11-15T00:38:57;7.20;99.90
5154;DHT22;2595;53.584;10.084;2022-11-15T00:41:23;7.20;99.90
5154;DHT22;2595;53.584;10.084;2022-11-15T00:43:48;7.20;99.90
5154;DHT22;2595;53.584;10.084;2022-11-15T00:46:14;7.20;99.90
5154;DHT22;2595;53.584;10.084;2022-11-15T00:48:39;7.30;99.90
5154;DHT22;2595;53.584;10.084;2022-11-15T00:51:05;7.40;99.90
5154;DHT22;2595;53.584;10.084;2022-11-15T00:53:31;7.40;99.90
5154;DHT22;2595;53.584;10.084;2022-11-15T00:55:56;7.40;99.90
5154;DHT22;2595;53.584;10.084;2022-11-15T00:58:22;7.40;99.90
5154;DHT22;2595;53.584;10.084;2022-11-15T01:00:47;7.40;99.90
5154;DHT22;2595;53.584;10.084;2022-11-15T01:03:13;7.40;99.90
5154;DHT22;2595;53.584;10.084;2022-11-15T01:05:40;7.50;99.90
5154;DHT22;2595;53.584;10.084;2022-11-15T01:08:06;7.50;99.90
5154;DHT22;2595;53.584;10.084;2022-11-15T01:10:31;7.50;99.90
5154;DHT22;2595;53.584;10.084;2022-11-15T01:12:57;7.50;99.90
5154;DHT22;2595;53.584;10.084;2022-11-15T01:15:22;7.50;99.90
5154;DHT22;2595;53.584;10.084;2022-11-15T01:17:48;7.50;99.90
5154;DHT22;2595;53.584;10.084;2022-11-15T01:20:13;7.40;99.90
5154;DHT22;2595;53.584;10.084;2022-11-15T01:22:39;7.50;99.90
5154;DHT22;2595;53.584;10.084;2022-11-15T01:25:05;7.40;99.90
5154;DHT22;2595;53.584;10.084;2022-11-15T01:27:30;7.40;99.90
5154;DHT22;2595;53.584;10.084;2022-11-15T01:29:56;7.40;99.90
5154;DHT22;2595;53.584;10.084;2022-11-15T01:32:21;7.40;99.90
5154;DHT22;2595;53.584;10.084;2022-11-15T01:34:47;7.40;99.90
5154;DHT22;2595;53.584;10.084;2022-11-15T01:37:13;7.30;99.90
5154;DHT22;2595;53.584;10.084;2022-11-15T01:39:38;7.40;99.90
5154;DHT22;2595;53.584;10.084;2022-11-15T01:42:04;7.30;99.90
5154;DHT22;2595;53.584;10.084;2022-11-15T01:47:12;7.20;99.90
5154;DHT22;2595;53.584;10.084;2022-11-15T01:49:41;7.10;99.90
5154;DHT22;2595;53.584;10.084;2022-11-15T01:52:14;7.10;99.90
5154;DHT22;2595;53.584;10.084;2022-11-15T01:54:42;7.10;99.90
5154;DHT22;2595;53.584;10.084;2022-11-15T01:57:10;7.00;99.90
5154;DHT22;2595;53.584;10.084;2022-11-15T01:59:40;7.00;99.90
5154;DHT22;2595;53.584;10.084;2022-11-15T02:02:07;7.00;99.90
5154;DHT22;2595;53.584;10.084;2022-11-15T02:04:43;7.00;99.90
5154;DHT22;2595;53.584;10.084;2022-11-15T02:07:12;6.90;99.90
5154;DHT22;2595;53.584;10.084;2022-11-15T02:09:38;6.80;99.90
5154;DHT22;2595;53.584;10.084;2022-11-15T02:12:06;6.80;99.90
5154;DHT22;2595;53.584;10.084;2022-11-15T02:14:33;6.70;99.90
5154;DHT22;2595;53.584;10.084;2022-11-15T02:28:53;6.60;99.90
5154;DHT22;2595;53.584;10.084;2022-11-15T02:39:35;6.50;99.90
5154;DHT22;2595;53.584;10.084;2022-11-15T02:44:55;6.40;99.90
5154;DHT22;2595;53.584;10.084;2022-11-15T02:47:24;6.40;99.90
5154;DHT22;2595;53.584;10.084;2022-11-15T02:49:55;6.50;99.90
5154;DHT22;2595;53.584;10.084;2022-11-15T02:52:24;6.50;99.90
5154;DHT22;2595;53.584;10.084;2022-11-15T02:54:54;6.50;99.90
5154;DHT22;2595;53.584;10.084;2022-11-15T03:13:53;6.90;99.90
5154;DHT22;2595;53.584;10.084;2022-11-15T03:16:36;7.00;99.90
5154;DHT22;2595;53.584;10.084;2022-11-15T03:19:23;7.00;99.90
5154;DHT22;2595;53.584;10.084;2022-11-15T03:21:51;7.10;99.90
5154;DHT22;2595;53.584;10.084;2022-11-15T03:24:19;7.00;99.90
5154;DHT22;2595;53.584;10.084;2022-11-15T03:26:48;7.00;99.90
5154;DHT22;2595;53.584;10.084;2022-11-15T03:29:19;7.00;99.90
5154;DHT22;2595;53.584;10.084;2022-11-15T03:31:48;6.90;99.90
5154;DHT22;2595;53.584;10.084;2022-11-15T03:34:58;6.90;99.90
5154;DHT22;2595;53.584;10.084;2022-11-15T03:40:00;6.70;99.90
5154;DHT22;2595;53.584;10.084;2022-11-15T03:42:57;6.80;99.90
5154;DHT22;2595;53.584;10.084;2022-11-15T03:45:56;6.70;99.90
5154;DHT22;2595;53.584;10.084;2022-11-15T03:48:27;6.60;99.90
5154;DHT22;2595;53.584;10.084;2022-11-15T03:50:55;6.60;99.90
5154;DHT22;2595;53.584;10.084;2022-11-15T03:53:21;6.70;99.90
5154;DHT22;2595;53.584;10.084;2022-11-15T03:55:47;6.60;99.90
5154;DHT22;2595;53.584;10.084;2022-11-15T03:58:12;6.60;99.90
5154;DHT22;2595;53.584;10.084;2022-11-15T04:00:38;6.50;99.90
5154;DHT22;2595;53.584;10.084;2022-11-15T04:03:04;6.50;99.90
5154;DHT22;2595;53.584;10.084;2022-11-15T04:05:29;6.50;99.90
5154;DHT22;2595;53.584;10.084;2022-11-15T04:07:55;6.60;99.90
5154;DHT22;2595;53.584;10.084;2022-11-15T04:10:21;6.60;99.90
5154;DHT22;2595;53.584;10.084;2022-11-15T04:12:46;6.60;99.90
5154;DHT22;2595;53.584;10.084;2022-11-15T04:15:15;6.60;99.90
5154;DHT22;2595;53.584;10.084;2022-11-15T04:17:42;6.50;99.90
5154;DHT22;2595;53.584;10.084;2022-11-15T04:20:26;6.50;99.90
5154;DHT22;2595;53.584;10.084;2022-11-15T04:23:13;6.40;99.90
5154;DHT22;2595;53.584;10.084;2022-11-15T04:26:12;6.50;99.90
5154;DHT22;2595;53.584;10.084;2022-11-15T04:28:40;6.40;99.90
5154;DHT22;2595;53.584;10.084;2022-11-15T04:31:26;6.40;99.90
5154;DHT22;2595;53.584;10.084;2022-11-15T04:33:52;6.40;99.90
5154;DHT22;2595;53.584;10.084;2022-11-15T04:36:17;6.40;99.90
5154;DHT22;2595;53.584;10.084;2022-11-15T04:39:02;6.40;99.90
5154;DHT22;2595;53.584;10.084;2022-11-15T04:41:28;6.50;99.90
5154;DHT22;2595;53.584;10.084;2022-11-15T04:43:54;6.50;99.90
5154;DHT22;2595;53.584;10.084;2022-11-15T04:46:20;6.60;99.90
5154;DHT22;2595;53.584;10.084;2022-11-15T04:48:46;6.50;99.90
5154;DHT22;2595;53.584;10.084;2022-11-15T04:51:11;6.50;99.90
5154;DHT22;2595;53.584;10.084;2022-11-15T04:53:37;6.60;99.90
5154;DHT22;2595;53.584;10.084;2022-11-15T04:56:03;6.60;99.90
5154;DHT22;2595;53.584;10.084;2022-11-15T04:58:28;6.60;99.90
5154;DHT22;2595;53.584;10.084;2022-11-15T05:00:54;6.70;99.90
5154;DHT22;2595;53.584;10.084;2022-11-15T05:03:19;6.60;99.90
5154;DHT22;2595;53.584;10.084;2022-11-15T05:06:04;6.70;99.90
5154;DHT22;2595;53.584;10.084;2022-11-15T05:08:30;6.70;99.90
5154;DHT22;2595;53.584;10.084;2022-11-15T05:10:56;6.70;99.90
5154;DHT22;2595;53.584;10.084;2022-11-15T05:13:21;6.70;99.90
5154;DHT22;2595;53.584;10.084;2022-11-15T05:15:47;6.80;99.90
5154;DHT22;2595;53.584;10.084;2022-11-15T05:18:13;6.80;99.90
5154;DHT22;2595;53.584;10.084;2022-11-15T05:20:38;6.90;99.90
5154;DHT22;2595;53.584;10.084;2022-11-15T05:23:04;6.90;99.90
5154;DHT22;2595;53.584;10.084;2022-11-15T05:25:30;6.90;99.90
5154;DHT22;2595;53.584;10.084;2022-11-15T05:27:56;6.90;99.90
5154;DHT22;2595;53.584;10.084;2022-11-15T05:30:22;6.90;99.90
5154;DHT22;2595;53.584;10.084;2022-11-15T05:32:47;6.90;99.90
5154;DHT22;2595;53.584;10.084;2022-11-15T05:35:20;6.90;99.90
5154;DHT22;2595;53.584;10.084;2022-11-15T05:37:47;6.90;99.90
5154;DHT22;2595;53.584;10.084;2022-11-15T05:40:13;7.00;99.90
5154;DHT22;2595;53.584;10.084;2022-11-15T05:42:38;7.00;99.90
5154;DHT22;2595;53.584;10.084;2022-11-15T05:45:06;7.10;99.90
5154;DHT22;2595;53.584;10.084;2022-11-15T05:47:34;7.00;99.90
5154;DHT22;2595;53.584;10.084;2022-11-15T05:50:01;7.10;99.90
5154;DHT22;2595;53.584;10.084;2022-11-15T05:52:30;7.10;99.90
5154;DHT22;2595;53.584;10.084;2022-11-15T05:54:57;7.10;99.90
5154;DHT22;2595;53.584;10.084;2022-11-15T05:57:24;7.10;99.90
5154;DHT22;2595;53.584;10.084;2022-11-15T05:59:49;7.10;99.90
5154;DHT22;2595;53.584;10.084;2022-11-15T06:02:15;7.20;99.90
5154;DHT22;2595;53.584;10.084;2022-11-15T06:04:41;7.20;99.90
5154;DHT22;2595;53.584;10.084;2022-11-15T06:07:06;7.20;99.90
5154;DHT22;2595;53.584;10.084;2022-11-15T06:09:32;7.30;99.90
5154;DHT22;2595;53.584;10.084;2022-11-15T06:11:57;7.30;99.90
5154;DHT22;2595;53.584;10.084;2022-11-15T06:14:23;7.30;99.90
5154;DHT22;2595;53.584;10.084;2022-11-15T06:16:49;7.30;99.90
5154;DHT22;2595;53.584;10.084;2022-11-15T06:19:14;7.30;99.90
5154;DHT22;2595;53.584;10.084;2022-11-15T06:21:40;7.30;99.90
5154;DHT22;2595;53.584;10.084;2022-11-15T06:24:06;7.30;99.90
5154;DHT22;2595;53.584;10.084;2022-11-15T06:26:32;7.40;99.90
5154;DHT22;2595;53.584;10.084;2022-11-15T06:28:58;7.40;99.90
5154;DHT22;2595;53.584;10.084;2022-11-15T06:31:23;7.40;99.90
5154;DHT22;2595;53.584;10.084;2022-11-15T06:33:49;7.40;99.90
5154;DHT22;2595;53.584;10.084;2022-11-15T06:36:15;7.50;99.90
5154;DHT22;2595;53.584;10.084;2022-11-15T06:38:45;7.50;99.90
5154;DHT22;2595;53.584;10.084;2022-11-15T06:41:12;7.50;99.90
5154;DHT22;2595;53.584;10.084;2022-11-15T06:43:38;7.50;99.90
5154;DHT22;2595;53.584;10.084;2022-11-15T06:46:04;7.50;99.90
5154;DHT22;2595;53.584;10.084;2022-11-15T06:48:31;7.50;99.90
5154;DHT22;2595;53.584;10.084;2022-11-15T06:50:58;7.60;99.90
5154;DHT22;2595;53.584;10.084;2022-11-15T06:53:25;7.60;99.90
5154;DHT22;2595;53.584;10.084;2022-11-15T06:55:51;7.60;99.90
5154;DHT22;2595;53.584;10.084;2022-11-15T06:58:17;7.60;99.90
5154;DHT22;2595;53.584;10.084;2022-11-15T07:00:43;7.70;99.90
5154;DHT22;2595;53.584;10.084;2022-11-15T07:03:09;7.70;99.90
5154;DHT22;2595;53.584;10.084;2022-11-15T07:05:35;7.70;99.90
5154;DHT22;2595;53.584;10.084;2022-11-15T07:08:02;7.80;99.90
5154;DHT22;2595;53.584;10.084;2022-11-15T07:10:27;7.70;99.90
5154;DHT22;2595;53.584;10.084;2022-11-15T07:12:54;7.80;99.90
5154;DHT22;2595;53.584;10.084;2022-11-15T07:15:24;7.80;99.90
5154;DHT22;2595;53.584;10.084;2022-11-15T07:17:50;7.80;99.90
5154;DHT22;2595;53.584;10.084;2022-11-15T07:20:17;7.80;99.90
5154;DHT22;2595;53.584;10.084;2022-11-15T07:22:43;7.80;99.90
5154;DHT22;2595;53.584;10.084;2022-11-15T07:25:10;7.80;99.90
5154;DHT22;2595;53.584;10.084;2022-11-15T07:27:37;7.80;99.90
5154;DHT22;2595;53.584;10.084;2022-11-15T07:30:03;7.80;99.90
5154;DHT22;2595;53.584;10.084;2022-11-15T07:32:29;7.90;99.90
5154;DHT22;2595;53.584;10.084;2022-11-15T07:34:55;7.80;99.90
5154;DHT22;2595;53.584;10.084;2022-11-15T07:37:20;7.80;99.90
5154;DHT22;2595;53.584;10.084;2022-11-15T07:39:46;7.80;99.90
5154;DHT22;2595;53.584;10.084;2022-11-15T07:42:11;7.90;99.90
5154;DHT22;2595;53.584;10.084;2022-11-15T07:44:56;7.90;99.90
5154;DHT22;2595;53.584;10.084;2022-11-15T07:47:21;7.90;99.90
5154;DHT22;2595;53.584;10.084;2022-11-15T07:49:47;7.90;99.90
5154;DHT22;2595;53.584;10.084;2022-11-15T07:52:13;7.90;99.90
5154;DHT22;2595;53.584;10.084;2022-11-15T07:54:39;8.00;99.90
5154;DHT22;2595;53.584;10.084;2022-11-15T07:57:05;8.00;99.90
5154;DHT22;2595;53.584;10.084;2022-11-15T07:59:32;8.00;99.90
5154;DHT22;2595;53.584;10.084;2022-11-15T08:01:58;8.00;99.90
5154;DHT22;2595;53.584;10.084;2022-11-15T08:04:23;8.00;99.90
5154;DHT22;2595;53.584;10.084;2022-11-15T08:06:49;8.00;99.90
5154;DHT22;2595;53.584;10.084;2022-11-15T08:09:14;8.00;99.90
5154;DHT22;2595;53.584;10.084;2022-11-15T08:11:40;8.00;99.90
5154;DHT22;2595;53.584;10.084;2022-11-15T08:14:05;8.00;99.90
5154;DHT22;2595;53.584;10.084;2022-11-15T08:16:31;8.00;99.90
5154;DHT22;2595;53.584;10.084;2022-11-15T08:18:57;8.10;99.90
5154;DHT22;2595;53.584;10.084;2022-11-15T08:21:23;8.10;99.90
5154;DHT22;2595;53.584;10.084;2022-11-15T08:23:48;8.10;99.90
5154;DHT22;2595;53.584;10.084;2022-11-15T08:26:14;8.10;99.90
5154;DHT22;2595;53.584;10.084;2022-11-15T08:28:40;8.10;99.90
5154;DHT22;2595;53.584;10.084;2022-11-15T08:31:05;8.10;99.90
5154;DHT22;2595;53.584;10.084;2022-11-15T08:33:32;8.10;99.90
5154;DHT22;2595;53.584;10.084;2022-11-15T08:35:59;8.10;99.90
5154;DHT22;2595;53.584;10.084;2022-11-15T08:38:25;8.10;99.90
5154;DHT22;2595;53.584;10.084;2022-11-15T08:40:53;8.10;99.90
5154;DHT22;2595;53.584;10.084;2022-11-15T08:43:23;8.10;99.90
5154;DHT22;2595;53.584;10.084;2022-11-15T08:45:49;8.10;99.90
5154;DHT22;2595;53.584;10.084;2022-11-15T08:48:14;8.20;99.90
5154;DHT22;2595;53.584;10.084;2022-11-15T08:50:40;8.20;99.90
5154;DHT22;2595;53.584;10.084;2022-11-15T08:53:10;8.20;99.90
5154;DHT22;2595;53.584;10.084;2022-11-15T08:55:37;8.20;99.90
5154;DHT22;2595;53.584;10.084;2022-11-15T08:58:03;8.20;99.90
5154;DHT22;2595;53.584;10.084;2022-11-15T09:00:29;8.30;99.90
5154;DHT22;2595;53.584;10.084;2022-11-15T09:02:55;8.30;99.90
5154;DHT22;2595;53.584;10.084;2022-11-15T09:05:20;8.30;99.90
5154;DHT22;2595;53.584;10.084;2022-11-15T09:07:46;8.30;99.90
5154;DHT22;2595;53.584;10.084;2022-11-15T09:10:11;8.30;99.90
5154;DHT22;2595;53.584;10.084;2022-11-15T09:12:37;8.30;99.90
5154;DHT22;2595;53.584;10.084;2022-11-15T09:15:04;8.30;99.90
5154;DHT22;2595;53.584;10.084;2022-11-15T09:17:30;8.30;99.90
5154;DHT22;2595;53.584;10.084;2022-11-15T09:19:55;8.30;99.90
5154;DHT22;2595;53.584;10.084;2022-11-15T09:22:21;8.30;99.90
5154;DHT22;2595;53.584;10.084;2022-11-15T09:24:47;8.30;99.90
5154;DHT22;2595;53.584;10.084;2022-11-15T09:27:12;8.40;99.90
5154;DHT22;2595;53.584;10.084;2022-11-15T09:29:38;8.40;99.90
5154;DHT22;2595;53.584;10.084;2022-11-15T09:32:04;8.50;99.90
5154;DHT22;2595;53.584;10.084;2022-11-15T09:34:30;8.50;99.90
5154;DHT22;2595;53.584;10.084;2022-11-15T09:36:55;8.50;99.90
5154;DHT22;2595;53.584;10.084;2022-11-15T09:39:21;8.60;99.90
5154;DHT22;2595;53.584;10.084;2022-11-15T09:45:20;8.60;99.90
5154;DHT22;2595;53.584;10.084;2022-11-15T09:53:24;8.60;99.90
5154;DHT22;2595;53.584;10.084;2022-11-15T09:56:00;8.70;99.90
5154;DHT22;2595;53.584;10.084;2022-11-15T10:04:30;8.80;99.90
5154;DHT22;2595;53.584;10.084;2022-11-15T10:12:54;8.90;99.90
5154;DHT22;2595;53.584;10.084;2022-11-15T10:15:21;9.00;99.90
5154;DHT22;2595;53.584;10.084;2022-11-15T10:18:05;9.00;99.90
5154;DHT22;2595;53.584;10.084;2022-11-15T10:20:55;9.00;99.90
5154;DHT22;2595;53.584;10.084;2022-11-15T10:23:23;9.10;99.90
5154;DHT22;2595;53.584;10.084;2022-11-15T10:26:00;9.10;99.90
5154;DHT22;2595;53.584;10.084;2022-11-15T10:30:55;9.20;99.90
5154;DHT22;2595;53.584;10.084;2022-11-15T10:33:33;9.20;99.90
5154;DHT22;2595;53.584;10.084;2022-11-15T10:46:34;9.30;99.90
5154;DHT22;2595;53.584;10.084;2022-11-15T10:49:52;9.30;99.90
5154;DHT22;2595;53.584;10.084;2022-11-15T10:52:19;9.40;99.90
5154;DHT22;2595;53.584;10.084;2022-11-15T10:54:49;9.40;99.90
5154;DHT22;2595;53.584;10.084;2022-11-15T10:57:24;9.40;99.90
5154;DHT22;2595;53.584;10.084;2022-11-15T11:00:00;9.40;99.90
5154;DHT22;2595;53.584;10.084;2022-11-15T11:02:37;9.40;99.90
5154;DHT22;2595;53.584;10.084;2022-11-15T11:05:06;9.50;99.90
5154;DHT22;2595;53.584;10.084;2022-11-15T11:07:34;9.50;99.90
5154;DHT22;2595;53.584;10.084;2022-11-15T11:10:19;9.50;99.90
5154;DHT22;2595;53.584;10.084;2022-11-15T11:12:45;9.50;99.90
5154;DHT22;2595;53.584;10.084;2022-11-15T11:15:15;9.50;99.90
5154;DHT22;2595;53.584;10.084;2022-11-15T11:20:36;9.50;99.90
5154;DHT22;2595;53.584;10.084;2022-11-15T11:26:42;9.60;99.90
5154;DHT22;2595;53.584;10.084;2022-11-15T11:37:30;9.60;99.90
5154;DHT22;2595;53.584;10.084;2022-11-15T11:42:55;9.70;99.90
5154;DHT22;2595;53.584;10.084;2022-11-15T11:45:47;9.70;99.90
5154;DHT22;2595;53.584;10.084;2022-11-15T11:48:43;9.70;99.90
5154;DHT22;2595;53.584;10.084;2022-11-15T11:51:28;9.70;99.90
5154;DHT22;2595;53.584;10.084;2022-11-15T11:54:06;9.70;99.90
5154;DHT22;2595;53.584;10.084;2022-11-15T11:56:37;9.80;99.90
5154;DHT22;2595;53.584;10.084;2022-11-15T11:59:36;9.80;99.90
5154;DHT22;2595;53.584;10.084;2022-11-15T12:02:20;9.90;99.90
5154;DHT22;2595;53.584;10.084;2022-11-15T12:04:52;9.90;99.90
5154;DHT22;2595;53.584;10.084;2022-11-15T12:07:24;10.00;99.90
5154;DHT22;2595;53.584;10.084;2022-11-15T12:09:55;10.00;99.90
5154;DHT22;2595;53.584;10.084;2022-11-15T12:15:24;10.00;99.90
5154;DHT22;2595;53.584;10.084;2022-11-15T12:17:51;10.10;99.90
5154;DHT22;2595;53.584;10.084;2022-11-15T12:20:19;10.10;99.90
5154;DHT22;2595;53.584;10.084;2022-11-15T12:23:07;10.10;99.90
5154;DHT22;2595;53.584;10.084;2022-11-15T12:25:56;10.10;99.90
5154;DHT22;2595;53.584;10.084;2022-11-15T12:31:15;10.10;99.90
5154;DHT22;2595;53.584;10.084;2022-11-15T12:33:44;10.20;99.90
5154;DHT22;2595;53.584;10.084;2022-11-15T12:38:53;10.20;99.90
5154;DHT22;2595;53.584;10.084;2022-11-15T12:41:21;10.20;99.90
5154;DHT22;2595;53.584;10.084;2022-11-15T12:43:48;10.20;99.90
5154;DHT22;2595;53.584;10.084;2022-11-15T12:52:06;10.30;99.90
5154;DHT22;2595;53.584;10.084;2022-11-15T13:02:22;10.30;99.90
5154;DHT22;2595;53.584;10.084;2022-11-15T13:04:50;10.40;99.90
5154;DHT22;2595;53.584;10.084;2022-11-15T13:17:43;10.60;99.90
5154;DHT22;2595;53.584;10.084;2022-11-15T13:28:17;10.50;99.90
5154;DHT22;2595;53.584;10.084;2022-11-15T13:35:55;10.40;99.90
5154;DHT22;2595;53.584;10.084;2022-11-15T13:38:26;10.40;99.90
5154;DHT22;2595;53.584;10.084;2022-11-15T13:40:52;10.40;99.90
5154;DHT22;2595;53.584;10.084;2022-11-15T13:48:29;10.40;99.90
5154;DHT22;2595;53.584;10.084;2022-11-15T13:50:56;10.40;99.90
5154;DHT22;2595;53.584;10.084;2022-11-15T13:53:22;10.40;99.90
5154;DHT22;2595;53.584;10.084;2022-11-15T13:55:48;10.40;99.90
5154;DHT22;2595;53.584;10.084;2022-11-15T13:58:14;10.40;99.90
5154;DHT22;2595;53.584;10.084;2022-11-15T14:00:42;10.50;99.90
5154;DHT22;2595;53.584;10.084;2022-11-15T14:03:30;10.50;99.90
5154;DHT22;2595;53.584;10.084;2022-11-15T14:06:07;10.50;99.90
5154;DHT22;2595;53.584;10.084;2022-11-15T14:08:36;10.50;99.90
5154;DHT22;2595;53.584;10.084;2022-11-15T14:11:14;10.50;99.90
5154;DHT22;2595;53.584;10.084;2022-11-15T14:13:41;10.50;99.90
5154;DHT22;2595;53.584;10.084;2022-11-15T14:16:19;10.50;99.90
5154;DHT22;2595;53.584;10.084;2022-11-15T14:21:10;10.60;99.90
5154;DHT22;2595;53.584;10.084;2022-11-15T14:23:36;10.60;99.90
5154;DHT22;2595;53.584;10.084;2022-11-15T14:26:02;10.60;99.90
5154;DHT22;2595;53.584;10.084;2022-11-15T14:28:32;10.70;99.90
5154;DHT22;2595;53.584;10.084;2022-11-15T14:31:04;10.60;99.90
5154;DHT22;2595;53.584;10.084;2022-11-15T14:33:33;10.60;99.90
5154;DHT22;2595;53.584;10.084;2022-11-15T14:38:39;10.70;99.90
5154;DHT22;2595;53.584;10.084;2022-11-15T14:41:05;10.80;99.90
5154;DHT22;2595;53.584;10.084;2022-11-15T14:43:31;10.80;99.90
5154;DHT22;2595;53.584;10.084;2022-11-15T14:45:56;10.80;99.90
5154;DHT22;2595;53.584;10.084;2022-11-15T14:48:22;10.80;99.90
5154;DHT22;2595;53.584;10.084;2022-11-15T14:50:48;10.80;99.90
5154;DHT22;2595;53.584;10.084;2022-11-15T14:53:16;10.70;99.90
5154;DHT22;2595;53.584;10.084;2022-11-15T14:55:41;10.70;99.90
5154;DHT22;2595;53.584;10.084;2022-11-15T14:58:08;10.70;99.90
5154;DHT22;2595;53.584;10.084;2022-11-15T15:00:35;10.70;99.90
5154;DHT22;2595;53.584;10.084;2022-11-15T15:03:01;10.70;99.90
5154;DHT22;2595;53.584;10.084;2022-11-15T15:05:43;10.70;99.90
5154;DHT22;2595;53.584;10.084;2022-11-15T15:08:10;10.60;99.90
5154;DHT22;2595;53.584;10.084;2022-11-15T15:10:44;10.60;99.90
5154;DHT22;2595;53.584;10.084;2022-11-15T15:13:21;10.60;99.90
5154;DHT22;2595;53.584;10.084;2022-11-15T15:15:48;10.60;99.90
5154;DHT22;2595;53.584;10.084;2022-11-15T15:18:14;10.60;99.90
5154;DHT22;2595;53.584;10.084;2022-11-15T15:20:41;10.60;99.90
5154;DHT22;2595;53.584;10.084;2022-11-15T15:23:18;10.50;99.90
5154;DHT22;2595;53.584;10.084;2022-11-15T15:25:44;10.50;99.90
5154;DHT22;2595;53.584;10.084;2022-11-15T15:28:11;10.50;99.90
5154;DHT22;2595;53.584;10.084;2022-11-15T15:30:36;10.50;99.90
5154;DHT22;2595;53.584;10.084;2022-11-15T15:33:02;10.50;99.90
5154;DHT22;2595;53.584;10.084;2022-11-15T15:35:30;10.40;99.90
5154;DHT22;2595;53.584;10.084;2022-11-15T15:37:57;10.50;99.90
5154;DHT22;2595;53.584;10.084;2022-11-15T15:40:24;10.50;99.90
5154;DHT22;2595;53.584;10.084;2022-11-15T15:42:50;10.50;99.90
5154;DHT22;2595;53.584;10.084;2022-11-15T15:45:16;10.50;99.90
5154;DHT22;2595;53.584;10.084;2022-11-15T15:47:43;10.50;99.90
5154;DHT22;2595;53.584;10.084;2022-11-15T15:50:29;10.50;99.90
5154;DHT22;2595;53.584;10.084;2022-11-15T15:52:56;10.50;99.90
5154;DHT22;2595;53.584;10.084;2022-11-15T15:55:23;10.50;99.90
5154;DHT22;2595;53.584;10.084;2022-11-15T15:57:49;10.50;99.90
5154;DHT22;2595;53.584;10.084;2022-11-15T16:00:16;10.50;99.90
5154;DHT22;2595;53.584;10.084;2022-11-15T16:02:42;10.50;99.90
5154;DHT22;2595;53.584;10.084;2022-11-15T16:05:08;10.40;99.90
5154;DHT22;2595;53.584;10.084;2022-11-15T16:07:35;10.40;99.90
5154;DHT22;2595;53.584;10.084;2022-11-15T16:10:00;10.40;99.90
5154;DHT22;2595;53.584;10.084;2022-11-15T16:12:33;10.40;99.90
5154;DHT22;2595;53.584;10.084;2022-11-15T16:15:00;10.40;99.90
5154;DHT22;2595;53.584;10.084;2022-11-15T16:17:32;10.30;99.90
5154;DHT22;2595;53.584;10.084;2022-11-15T16:19:59;10.30;99.90
5154;DHT22;2595;53.584;10.084;2022-11-15T16:22:24;10.30;99.90
5154;DHT22;2595;53.584;10.084;2022-11-15T16:24:51;10.30;99.90
5154;DHT22;2595;53.584;10.084;2022-11-15T16:27:20;10.30;99.90
5154;DHT22;2595;53.584;10.084;2022-11-15T16:29:46;10.30;99.90
5154;DHT22;2595;53.584;10.084;2022-11-15T16:32:13;10.30;99.90
5154;DHT22;2595;53.584;10.084;2022-11-15T16:34:39;10.40;99.90
5154;DHT22;2595;53.584;10.084;2022-11-15T16:37:05;10.40;99.90
5154;DHT22;2595;53.584;10.084;2022-11-15T16:39:31;10.40;99.90
5154;DHT22;2595;53.584;10.084;2022-11-15T16:42:00;10.40;99.90
5154;DHT22;2595;53.584;10.084;2022-11-15T16:44:27;10.40;99.90
5154;DHT22;2595;53.584;10.084;2022-11-15T16:46:53;10.40;99.90
5154;DHT22;2595;53.584;10.084;2022-11-15T16:49:20;10.40;99.90
5154;DHT22;2595;53.584;10.084;2022-11-15T16:51:47;10.40;99.90
5154;DHT22;2595;53.584;10.084;2022-11-15T16:54:13;10.40;99.90
5154;DHT22;2595;53.584;10.084;2022-11-15T16:56:39;10.40;99.90
5154;DHT22;2595;53.584;10.084;2022-11-15T16:59:05;10.40;99.90
5154;DHT22;2595;53.584;10.084;2022-11-15T17:01:36;10.50;99.90
5154;DHT22;2595;53.584;10.084;2022-11-15T17:04:12;10.50;99.90
5154;DHT22;2595;53.584;10.084;2022-11-15T17:06:39;10.50;99.90
5154;DHT22;2595;53.584;10.084;2022-11-15T17:09:05;10.50;99.90
5154;DHT22;2595;53.584;10.084;2022-11-15T17:11:31;10.50;99.90
5154;DHT22;2595;53.584;10.084;2022-11-15T17:13:58;10.50;99.90
5154;DHT22;2595;53.584;10.084;2022-11-15T17:16:25;10.50;99.90
5154;DHT22;2595;53.584;10.084;2022-11-15T17:18:51;10.50;99.90
5154;DHT22;2595;53.584;10.084;2022-11-15T17:21:19;10.50;99.90
5154;DHT22;2595;53.584;10.084;2022-11-15T17:23:46;10.50;99.90
5154;DHT22;2595;53.584;10.084;2022-11-15T17:26:13;10.50;99.90
5154;DHT22;2595;53.584;10.084;2022-11-15T17:28:40;10.50;99.90
5154;DHT22;2595;53.584;10.084;2022-11-15T17:31:07;10.40;99.90
5154;DHT22;2595;53.584;10.084;2022-11-15T17:33:33;10.40;99.90
5154;DHT22;2595;53.584;10.084;2022-11-15T17:36:00;10.40;99.90
5154;DHT22;2595;53.584;10.084;2022-11-15T17:38:27;10.40;99.90
5154;DHT22;2595;53.584;10.084;2022-11-15T17:41:04;10.40;99.90
5154;DHT22;2595;53.584;10.084;2022-11-15T17:43:31;10.40;99.90
5154;DHT22;2595;53.584;10.084;2022-11-15T17:45:57;10.40;99.90
5154;DHT22;2595;53.584;10.084;2022-11-15T17:48:23;10.30;99.90
5154;DHT22;2595;53.584;10.084;2022-11-15T17:51:10;10.30;99.90
5154;DHT22;2595;53.584;10.084;2022-11-15T17:53:39;10.30;99.90
5154;DHT22;2595;53.584;10.084;2022-11-15T17:56:07;10.20;99.90
5154;DHT22;2595;53.584;10.084;2022-11-15T17:58:33;10.20;99.90
5154;DHT22;2595;53.584;10.084;2022-11-15T18:01:19;10.20;99.90
5154;DHT22;2595;53.584;10.084;2022-11-15T18:03:45;10.20;99.90
5154;DHT22;2595;53.584;10.084;2022-11-15T18:06:11;10.20;99.90
5154;DHT22;2595;53.584;10.084;2022-11-15T18:08:39;10.20;99.90
5154;DHT22;2595;53.584;10.084;2022-11-15T18:13:36;10.20;99.90
5154;DHT22;2595;53.584;10.084;2022-11-15T18:16:04;10.20;99.90
5154;DHT22;2595;53.584;10.084;2022-11-15T18:18:31;10.20;99.90
5154;DHT22;2595;53.584;10.084;2022-11-15T18:21:04;10.20;99.90
5154;DHT22;2595;53.584;10.084;2022-11-15T18:23:30;10.20;99.90
5154;DHT22;2595;53.584;10.084;2022-11-15T18:25:56;10.20;99.90
5154;DHT22;2595;53.584;10.084;2022-11-15T18:28:22;10.20;99.90
5154;DHT22;2595;53.584;10.084;2022-11-15T18:30:47;10.20;99.90
5154;DHT22;2595;53.584;10.084;2022-11-15T18:33:13;10.20;99.90
5154;DHT22;2595;53.584;10.084;2022-11-15T18:35:39;10.20;99.90
5154;DHT22;2595;53.584;10.084;2022-11-15T18:38:04;10.20;99.90
5154;DHT22;2595;53.584;10.084;2022-11-15T18:40:30;10.30;99.90